Los Angeles, California
Traffic Map
Current Weather Conditions
Los Angeles, California
Few Clouds
Few Clouds
58°
Feels Like: 58°
Wind Chill: 58° Ceiling: Unl
Heat Index: 58° Visibility: 10mi
Dew Point: 50° Wind: 0mph
Humidity: 75% Direction: ° ()
Pressure: 29.97in Gusts: 0mph
Raw Report DataKCQT 251347Z AUTO 00000KT 10SM FEW038 14/10 A2997 RMK AO2 SLP147 T01440100
Traffic Incident Summary
Active as of:
Severity:
Category:
InformationThere was an issue retrieving the traffic information for this location. Please try a different location or try again shortly.
Advertisements
Track Severe Weather on mobile